createdAt,value
2023-05-09T00:00:29.833Z,98705.50
2023-05-09T00:03:06.567Z,98713.41
2023-05-09T00:05:39.057Z,98698.84
2023-05-09T00:08:11.777Z,98699.34
2023-05-09T00:10:43.667Z,98699.50
2023-05-09T00:13:16.534Z,98688.97
2023-05-09T00:15:48.409Z,98690.22
2023-05-09T00:18:22.497Z,98688.69
2023-05-09T00:20:54.580Z,98682.19
2023-05-09T00:23:27.835Z,98675.19
2023-05-09T00:26:00.058Z,98668.13
2023-05-09T00:28:33.239Z,98672.91
2023-05-09T00:31:06.043Z,98662.66
2023-05-09T00:33:38.717Z,98657.25
2023-05-09T00:36:11.536Z,98654.13
2023-05-09T00:41:36.437Z,98657.69
2023-05-09T00:44:09.341Z,98653.75
2023-05-09T00:46:41.630Z,98640.09
2023-05-09T00:49:15.012Z,98650.53
2023-05-09T00:51:48.784Z,98649.13
2023-05-09T00:54:20.692Z,98640.63
2023-05-09T00:56:53.497Z,98642.63
2023-05-09T00:59:26.010Z,98638.38
2023-05-09T01:01:58.024Z,98639.47
2023-05-09T01:04:30.844Z,98633.22
2023-05-09T01:07:37.888Z,98630.22
2023-05-09T01:10:47.283Z,98637.97
2023-05-09T01:13:32.147Z,98632.63
2023-05-09T01:19:58.974Z,98625.44
2023-05-09T01:22:37.824Z,98618.09
2023-05-09T01:26:10.285Z,98624.09
2023-05-09T01:29:16.178Z,98624.47
2023-05-09T01:31:52.399Z,98614.06
2023-05-09T01:34:28.865Z,98609.69
2023-05-09T01:37:05.239Z,98620.16
2023-05-09T01:39:44.942Z,98619.00
2023-05-09T01:45:15.770Z,98613.53
2023-05-09T01:47:50.852Z,98612.63
2023-05-09T01:50:24.813Z,98609.91
2023-05-09T01:52:58.820Z,98610.19
2023-05-09T01:55:36.488Z,98598.19
2023-05-09T01:58:09.870Z,98601.47
2023-05-09T02:00:43.993Z,98603.75
2023-05-09T02:03:16.716Z,98578.13
2023-05-09T02:05:50.403Z,98583.88
2023-05-09T02:08:23.768Z,98579.66
2023-05-09T02:10:55.800Z,98580.41
2023-05-09T02:13:28.792Z,98575.84
2023-05-09T02:16:01.335Z,98579.91
2023-05-09T02:18:35.791Z,98586.22
2023-05-09T02:21:09.105Z,98571.81
2023-05-09T02:23:41.565Z,98585.31
2023-05-09T02:26:17.193Z,98581.09
2023-05-09T02:28:51.357Z,98573.25
2023-05-09T02:31:28.422Z,98571.44
2023-05-09T02:34:02.849Z,98563.44
2023-05-09T02:36:35.843Z,98567.16
2023-05-09T02:39:07.964Z,98577.81
2023-05-09T02:41:40.704Z,98565.59
2023-05-09T02:44:12.992Z,98562.72
2023-05-09T02:46:45.342Z,98561.38
2023-05-09T02:49:31.622Z,98567.94
2023-05-09T02:52:07.310Z,98577.72
2023-05-09T02:54:39.863Z,98574.63
2023-05-09T02:57:12.601Z,98573.63
2023-05-09T02:59:44.554Z,98569.22
2023-05-09T03:02:17.608Z,98571.34
2023-05-09T03:04:50.397Z,98568.72
2023-05-09T03:07:22.755Z,98571.47
2023-05-09T03:09:55.020Z,98568.81
2023-05-09T03:12:28.205Z,98573.47
2023-05-09T03:15:01.303Z,98566.84
2023-05-09T03:17:35.895Z,98571.53
2023-05-09T03:20:10.324Z,98570.19
2023-05-09T03:22:42.656Z,98566.22
2023-05-09T03:25:17.463Z,98574.84
2023-05-09T03:27:52.726Z,98560.91
2023-05-09T03:30:24.797Z,98552.97
2023-05-09T03:35:52.877Z,98556.31
2023-05-09T03:38:25.949Z,98559.59
2023-05-09T03:40:58.715Z,98556.97
2023-05-09T03:43:32.112Z,98554.34
2023-05-09T03:46:04.037Z,98547.72
2023-05-09T03:48:40.639Z,98547.72
2023-05-09T03:51:12.596Z,98545.09
2023-05-09T03:53:47.962Z,98545.72
2023-05-09T03:56:20.802Z,98551.06
2023-05-09T03:58:56.723Z,98543.13
2023-05-09T04:01:30.792Z,98545.75
2023-05-09T04:04:05.162Z,98558.19
2023-05-09T04:06:40.776Z,98560.34
2023-05-09T04:09:15.574Z,98557.50
2023-05-09T04:11:48.767Z,98556.06
2023-05-09T04:14:21.234Z,98550.06
2023-05-09T04:16:54.020Z,98554.56
2023-05-09T04:19:26.549Z,98549.59
2023-05-09T04:21:58.668Z,98548.06
2023-05-09T04:24:32.511Z,98554.28
2023-05-09T04:27:05.782Z,98557.00
2023-05-09T04:29:38.924Z,98547.00
2023-05-09T04:32:11.615Z,98547.41
2023-05-09T04:34:44.796Z,98553.88
2023-05-09T04:37:23.215Z,98548.81
2023-05-09T04:39:55.732Z,98541.88
2023-05-09T04:42:35.434Z,98537.41
2023-05-09T04:45:08.374Z,98548.00
2023-05-09T04:47:42.201Z,98548.06
2023-05-09T04:50:14.945Z,98553.28
2023-05-09T04:52:47.641Z,98546.00
2023-05-09T04:55:20.160Z,98543.91
2023-05-09T04:57:54.874Z,98538.56
2023-05-09T05:00:27.270Z,98536.59
2023-05-09T05:03:00.411Z,98531.28
2023-05-09T05:05:36.778Z,98539.97
2023-05-09T05:08:11.319Z,98541.91
2023-05-09T05:10:45.994Z,98545.78
2023-05-09T05:13:22.044Z,98545.19
2023-05-09T05:15:58.992Z,98545.06
2023-05-09T05:18:31.729Z,98533.47
2023-05-09T05:21:03.822Z,98541.56
2023-05-09T05:23:36.817Z,98547.66
2023-05-09T05:26:08.888Z,98546.94
2023-05-09T05:28:43.099Z,98532.81
2023-05-09T05:31:15.450Z,98531.84
2023-05-09T05:33:49.315Z,98525.59
2023-05-09T05:36:22.004Z,98522.84
2023-05-09T05:38:55.692Z,98531.97
2023-05-09T05:41:28.753Z,98511.47
2023-05-09T05:44:03.339Z,98506.56
2023-05-09T05:46:35.417Z,98519.84
2023-05-09T05:49:09.459Z,98518.84
2023-05-09T05:51:41.581Z,98511.00
2023-05-09T05:54:16.668Z,98513.59
2023-05-09T05:56:50.306Z,98509.72
2023-05-09T06:02:18.179Z,98496.63
2023-05-09T06:04:53.903Z,98492.69
2023-05-09T06:07:27.761Z,98498.06
2023-05-09T06:10:01.209Z,98496.31
2023-05-09T06:12:33.669Z,98494.22
2023-05-09T06:15:07.288Z,98487.59
2023-05-09T06:17:44.612Z,98480.19
2023-05-09T06:20:17.279Z,98470.38
2023-05-09T06:22:50.388Z,98482.63
2023-05-09T06:25:22.324Z,98471.09
2023-05-09T06:27:55.320Z,98480.72
2023-05-09T06:30:27.589Z,98474.28
2023-05-09T06:33:00.694Z,98481.19
2023-05-09T06:35:33.051Z,98477.06
2023-05-09T06:38:08.996Z,98475.19
2023-05-09T06:40:40.924Z,98460.03
2023-05-09T06:43:14.682Z,98452.03
2023-05-09T06:45:47.904Z,98457.81
2023-05-09T06:48:19.814Z,98442.59
2023-05-09T06:50:53.506Z,98442.56
2023-05-09T06:53:26.182Z,98437.78
2023-05-09T06:55:59.342Z,98441.72
2023-05-09T06:58:32.383Z,98442.28
2023-05-09T07:01:04.915Z,98434.66
2023-05-09T07:03:38.501Z,98432.88
2023-05-09T07:06:10.831Z,98427.56
2023-05-09T07:08:44.224Z,98428.38
2023-05-09T07:11:16.329Z,98424.28
2023-05-09T07:13:51.822Z,98427.16
2023-05-09T07:16:25.299Z,98409.53
2023-05-09T07:18:59.550Z,98418.28
2023-05-09T07:21:35.991Z,98411.25
2023-05-09T07:24:08.749Z,98410.22
2023-05-09T07:26:41.705Z,98406.59
2023-05-09T07:29:14.289Z,98399.31
2023-05-09T07:31:47.307Z,98387.44
2023-05-09T07:34:20.786Z,98389.06
2023-05-09T07:36:53.217Z,98384.34
2023-05-09T07:39:25.390Z,98389.91
2023-05-09T07:41:59.085Z,98395.06
2023-05-09T07:44:31.715Z,98394.94
2023-05-09T07:47:06.361Z,98383.56
2023-05-09T07:49:38.268Z,98369.91
2023-05-09T07:52:12.605Z,98371.81
2023-05-09T07:54:45.317Z,98377.56
2023-05-09T07:57:18.968Z,98369.97
2023-05-09T07:59:51.057Z,98350.16
2023-05-09T08:02:26.123Z,98357.72
2023-05-09T08:04:58.199Z,98353.41
2023-05-09T08:07:32.134Z,98350.50
2023-05-09T08:10:04.650Z,98344.81
2023-05-09T08:15:32.350Z,98337.88
2023-05-09T08:18:04.483Z,98326.75
2023-05-09T08:23:31.704Z,98325.97
2023-05-09T08:26:04.440Z,98319.16
2023-05-09T08:28:36.419Z,98325.06
2023-05-09T08:31:12.438Z,98313.31
2023-05-09T08:33:44.581Z,98304.50
2023-05-09T08:36:18.076Z,98299.41
2023-05-09T08:38:50.040Z,98299.03
2023-05-09T08:41:28.398Z,98301.41
2023-05-09T08:44:00.384Z,98290.22
2023-05-09T08:46:40.061Z,98290.72
2023-05-09T08:49:15.874Z,98290.34
2023-05-09T08:51:52.764Z,98288.03
2023-05-09T08:54:26.199Z,98282.94
2023-05-09T08:56:59.170Z,98285.19
2023-05-09T08:59:35.037Z,98284.75
2023-05-09T09:02:15.076Z,98278.19
2023-05-09T09:04:47.463Z,98280.84
2023-05-09T09:07:21.685Z,98274.81
2023-05-09T09:09:54.766Z,98259.16
2023-05-09T09:12:29.858Z,98256.97
2023-05-09T09:15:06.036Z,98255.22
2023-05-09T09:17:43.617Z,98253.59
2023-05-09T09:20:18.553Z,98263.25
2023-05-09T09:22:56.603Z,98243.09
2023-05-09T09:25:28.490Z,98235.94
2023-05-09T09:28:01.911Z,98243.97
2023-05-09T09:30:35.033Z,98235.88
2023-05-09T09:33:07.693Z,98234.81
2023-05-09T09:35:41.667Z,98237.19
2023-05-09T09:38:13.946Z,98236.25
2023-05-09T09:40:55.516Z,98248.59
2023-05-09T09:43:30.136Z,98235.03
2023-05-09T09:46:03.642Z,98233.16
2023-05-09T09:48:36.349Z,98223.66
2023-05-09T09:51:11.691Z,98221.91
2023-05-09T09:53:45.100Z,98219.47
2023-05-09T09:56:17.984Z,98217.63
2023-05-09T09:58:51.364Z,98212.00
2023-05-09T10:01:23.879Z,98201.22
2023-05-09T10:05:13.470Z,98196.97
2023-05-09T10:07:46.242Z,98200.16
2023-05-09T10:10:18.331Z,98194.00
2023-05-09T10:12:56.483Z,98185.78
2023-05-09T10:15:41.340Z,98185.22
2023-05-09T10:18:29.361Z,98176.53
2023-05-09T10:21:03.692Z,98174.06
2023-05-09T10:23:38.840Z,98157.94
2023-05-09T10:26:23.349Z,98170.06
2023-05-09T10:28:58.026Z,98156.63
2023-05-09T10:31:34.932Z,98154.81
2023-05-09T10:34:12.581Z,98148.69
2023-05-09T10:36:46.655Z,98144.94
2023-05-09T10:39:19.877Z,98140.03
2023-05-09T10:41:52.128Z,98135.97
2023-05-09T10:44:26.261Z,98145.41
2023-05-09T10:46:59.355Z,98137.97
2023-05-09T10:49:34.252Z,98132.97
2023-05-09T10:52:08.604Z,98131.38
2023-05-09T10:54:40.902Z,98127.41
2023-05-09T10:57:20.151Z,98120.06
2023-05-09T10:59:52.792Z,98114.81
2023-05-09T11:02:33.036Z,98106.38
2023-05-09T11:05:18.613Z,98100.34
2023-05-09T11:08:21.135Z,98090.88
2023-05-09T11:10:56.421Z,98089.59
2023-05-09T11:13:32.986Z,98084.81
2023-05-09T11:16:08.877Z,98077.63
2023-05-09T11:18:53.422Z,98068.41
2023-05-09T11:21:26.198Z,98070.53
2023-05-09T11:23:58.872Z,98065.53
2023-05-09T11:26:32.779Z,98062.25
2023-05-09T11:29:07.009Z,98058.06
2023-05-09T11:32:06.641Z,98048.94
2023-05-09T11:34:43.577Z,98049.94
2023-05-09T11:37:19.840Z,98030.13
2023-05-09T11:40:05.693Z,98026.31
2023-05-09T11:42:47.364Z,98017.97
2023-05-09T11:45:20.529Z,98019.53
2023-05-09T11:47:54.436Z,98022.22
2023-05-09T11:50:26.571Z,98021.06
2023-05-09T11:52:59.234Z,98007.44
2023-05-09T11:55:32.607Z,98012.84
2023-05-09T11:58:08.252Z,98010.97
2023-05-09T12:00:47.231Z,98008.09
2023-05-09T12:03:20.469Z,98002.28
2023-05-09T12:05:55.896Z,97995.56
2023-05-09T12:08:29.700Z,97996.03
2023-05-09T12:11:09.542Z,97990.56
2023-05-09T12:13:50.457Z,97981.91
2023-05-09T12:16:22.601Z,97980.31
2023-05-09T12:18:55.366Z,97982.13
2023-05-09T12:21:28.368Z,97977.19
2023-05-09T12:24:00.939Z,97973.44
2023-05-09T12:26:34.052Z,97965.56
2023-05-09T12:29:06.523Z,97958.25
2023-05-09T12:31:38.589Z,97957.56
2023-05-09T12:34:11.373Z,97956.41
2023-05-09T12:36:51.663Z,97943.41
2023-05-09T12:39:24.867Z,97943.78
2023-05-09T12:42:01.487Z,97939.91
2023-05-09T12:44:35.215Z,97935.31
2023-05-09T12:47:07.644Z,97924.94
2023-05-09T12:49:40.315Z,97927.38
2023-05-09T12:52:21.967Z,97932.13
2023-05-09T12:54:54.848Z,97922.53
2023-05-09T12:57:29.382Z,97921.34
2023-05-09T13:00:06.982Z,97924.53
2023-05-09T13:02:42.365Z,97929.94
2023-05-09T13:05:19.940Z,97916.81
2023-05-09T13:07:57.401Z,97918.91
2023-05-09T13:10:29.733Z,97921.72
2023-05-09T13:13:04.815Z,97917.88
2023-05-09T13:15:37.020Z,97900.78
2023-05-09T13:18:11.284Z,97902.00
2023-05-09T13:20:43.257Z,97900.72
2023-05-09T13:23:15.915Z,97888.56
2023-05-09T13:25:48.007Z,97880.72
2023-05-09T13:28:21.053Z,97883.22
2023-05-09T13:30:52.971Z,97882.13
2023-05-09T13:33:26.569Z,97878.16
2023-05-09T13:35:58.838Z,97883.13
2023-05-09T13:38:32.523Z,97880.13
2023-05-09T13:41:04.746Z,97872.59
2023-05-09T13:43:39.186Z,97875.38
2023-05-09T13:46:11.167Z,97874.81
2023-05-09T13:48:44.810Z,97877.38
2023-05-09T13:51:16.768Z,97870.03
2023-05-09T13:53:49.767Z,97867.59
2023-05-09T13:56:21.692Z,97869.56
2023-05-09T13:58:54.325Z,97868.63
2023-05-09T14:01:26.332Z,97861.03
2023-05-09T14:03:59.002Z,97848.56
2023-05-09T14:06:31.388Z,97859.72
2023-05-09T14:09:04.360Z,97855.03
2023-05-09T14:11:36.245Z,97856.41
2023-05-09T14:14:09.149Z,97864.78
2023-05-09T14:16:41.220Z,97859.84
2023-05-09T14:19:17.716Z,97864.38
2023-05-09T14:21:49.681Z,97859.69
2023-05-09T14:24:22.302Z,97858.53
2023-05-09T14:26:54.596Z,97850.91
2023-05-09T14:29:26.909Z,97856.00
2023-05-09T14:31:58.890Z,97856.19
2023-05-09T14:34:31.500Z,97849.66
2023-05-09T14:37:04.739Z,97860.63
2023-05-09T14:39:37.585Z,97856.34
2023-05-09T14:42:11.518Z,97859.75
2023-05-09T14:44:45.705Z,97868.16
2023-05-09T14:47:17.632Z,97864.31
2023-05-09T14:49:50.235Z,97862.41
2023-05-09T14:52:22.521Z,97867.00
2023-05-09T14:54:54.452Z,97852.91
2023-05-09T14:57:27.948Z,97864.38
2023-05-09T15:00:12.575Z,97865.75
2023-05-09T15:02:50.593Z,97866.75
2023-05-09T15:05:22.784Z,97868.97
2023-05-09T15:07:55.396Z,97874.91
2023-05-09T15:10:27.820Z,97864.78
2023-05-09T15:13:00.706Z,97870.38
2023-05-09T15:15:32.689Z,97870.56
2023-05-09T15:18:05.829Z,97870.72
2023-05-09T15:20:38.186Z,97867.75
2023-05-09T15:23:13.436Z,97881.94
2023-05-09T15:25:45.514Z,97872.03
2023-05-09T15:28:18.072Z,97862.41
2023-05-09T15:30:50.020Z,97872.63
2023-05-09T15:33:22.618Z,97875.31
2023-05-09T15:35:59.926Z,97867.22
2023-05-09T15:38:32.984Z,97886.63
2023-05-09T15:41:04.910Z,97892.34
2023-05-09T15:43:37.905Z,97917.25
2023-05-09T15:46:10.569Z,97930.28
2023-05-09T15:48:43.604Z,97924.41
2023-05-09T15:51:15.821Z,97922.72
2023-05-09T15:53:48.964Z,97930.69
2023-05-09T15:56:21.616Z,97920.34
2023-05-09T15:58:54.640Z,97929.50
2023-05-09T16:01:27.028Z,97929.13
2023-05-09T16:04:00.386Z,97931.00
2023-05-09T16:06:33.929Z,97928.16
2023-05-09T16:09:06.761Z,97917.22
2023-05-09T16:11:40.316Z,97923.41
2023-05-09T16:14:12.991Z,97920.47
2023-05-09T16:16:47.017Z,97917.19
2023-05-09T16:19:19.142Z,97926.84
2023-05-09T16:21:52.834Z,97918.56
2023-05-09T16:24:25.175Z,97917.53
2023-05-09T16:26:58.217Z,97918.50
2023-05-09T16:29:33.745Z,97906.84
2023-05-09T16:32:08.553Z,97914.72
2023-05-09T16:34:41.072Z,97916.63
2023-05-09T16:37:16.409Z,97903.88
2023-05-09T16:39:48.321Z,97894.22
2023-05-09T16:42:20.928Z,97893.03
2023-05-09T16:44:52.833Z,97890.25
2023-05-09T16:47:25.191Z,97882.56
2023-05-09T16:49:57.482Z,97880.06
2023-05-09T16:52:30.893Z,97877.31
2023-05-09T16:55:02.780Z,97879.63
2023-05-09T16:57:35.355Z,97879.91
2023-05-09T17:00:10.074Z,97878.94
2023-05-09T17:02:43.068Z,97878.22
2023-05-09T17:05:15.007Z,97876.44
2023-05-09T17:07:47.824Z,97873.84
2023-05-09T17:10:20.168Z,97868.66
2023-05-09T17:12:55.890Z,97876.38
2023-05-09T17:15:28.541Z,97875.28
2023-05-09T17:18:01.953Z,97876.16
2023-05-09T17:20:34.069Z,97873.50
2023-05-09T17:23:07.097Z,97869.84
2023-05-09T17:25:39.848Z,97870.69
2023-05-09T17:28:11.751Z,97871.78
2023-05-09T17:30:44.982Z,97865.09
2023-05-09T17:33:17.370Z,97868.09
2023-05-09T17:35:50.472Z,97866.63
2023-05-09T17:38:22.375Z,97872.03
2023-05-09T17:40:54.955Z,97863.81
2023-05-09T17:43:28.384Z,97874.22
2023-05-09T17:46:05.096Z,97877.09
2023-05-09T17:51:30.003Z,97880.75
2023-05-09T17:54:03.780Z,97868.44
2023-05-09T17:56:36.524Z,97878.44
2023-05-09T17:59:08.849Z,97879.56
2023-05-09T18:01:41.265Z,97884.88
2023-05-09T18:04:14.302Z,97872.63
2023-05-09T18:06:47.600Z,97880.91
2023-05-09T18:09:19.862Z,97886.28
2023-05-09T18:11:53.332Z,97877.00
2023-05-09T18:14:25.206Z,97885.09
2023-05-09T18:16:58.894Z,97873.88
2023-05-09T18:19:30.826Z,97881.16
2023-05-09T18:22:03.335Z,97871.72
2023-05-09T18:24:36.846Z,97883.63
2023-05-09T18:27:08.777Z,97877.69
2023-05-09T18:29:42.524Z,97875.53
2023-05-09T18:32:14.731Z,97872.84
2023-05-09T18:34:49.056Z,97873.94
2023-05-09T18:37:22.737Z,97868.66
2023-05-09T18:39:55.527Z,97865.69
2023-05-09T18:42:27.977Z,97869.44
2023-05-09T18:45:01.279Z,97867.91
2023-05-09T18:47:33.165Z,97871.31
2023-05-09T18:50:08.776Z,97866.22
2023-05-09T18:52:41.547Z,97864.47
2023-05-09T18:55:15.216Z,97857.84
2023-05-09T18:57:47.511Z,97860.03
2023-05-09T19:00:20.474Z,97860.59
2023-05-09T19:02:52.825Z,97847.34
2023-05-09T19:05:26.173Z,97857.88
2023-05-09T19:08:00.211Z,97855.25
2023-05-09T19:10:33.752Z,97868.50
2023-05-09T19:13:06.391Z,97863.75
2023-05-09T19:15:39.577Z,97859.81
2023-05-09T19:18:12.136Z,97868.97
2023-05-09T19:20:44.650Z,97865.81
2023-05-09T19:23:16.945Z,97856.53
2023-05-09T19:25:51.274Z,97864.50
2023-05-09T19:28:23.301Z,97869.16
2023-05-09T19:30:57.767Z,97879.81
2023-05-09T19:33:30.755Z,97875.22
2023-05-09T19:36:05.083Z,97877.91
2023-05-09T19:38:37.945Z,97881.22
2023-05-09T19:41:11.268Z,97877.25
2023-05-09T19:43:43.171Z,97880.06
2023-05-09T19:46:17.063Z,97881.31
2023-05-09T19:48:49.053Z,97883.34
2023-05-09T19:51:21.810Z,97882.78
2023-05-09T19:53:54.527Z,97877.47
2023-05-09T19:56:27.321Z,97882.13
2023-05-09T19:59:00.220Z,97885.53
2023-05-09T20:01:32.616Z,97884.91
2023-05-09T20:04:07.970Z,97880.22
2023-05-09T20:06:41.134Z,97879.75
2023-05-09T20:09:18.171Z,97878.34
2023-05-09T20:11:50.636Z,97882.38
2023-05-09T20:14:24.086Z,97879.75
2023-05-09T20:16:57.289Z,97881.72
2023-05-09T20:19:30.726Z,97886.44
2023-05-09T20:22:03.782Z,97879.78
2023-05-09T20:24:37.218Z,97883.09
2023-05-09T20:27:09.080Z,97889.06
2023-05-09T20:29:42.437Z,97883.78
2023-05-09T20:32:14.913Z,97889.81
2023-05-09T20:34:46.770Z,97891.19
2023-05-09T20:37:19.463Z,97887.97
2023-05-09T20:39:52.287Z,97885.31
2023-05-09T20:42:25.623Z,97888.75
2023-05-09T20:44:57.790Z,97891.41
2023-05-09T20:47:30.137Z,97888.78
2023-05-09T20:50:02.594Z,97887.44
2023-05-09T20:52:35.321Z,97882.13
2023-05-09T20:55:08.049Z,97892.66
2023-05-09T20:57:40.446Z,97886.88
2023-05-09T21:00:13.486Z,97888.81
2023-05-09T21:02:46.408Z,97887.41
2023-05-09T21:05:20.227Z,97884.84
2023-05-09T21:07:52.543Z,97890.09
2023-05-09T21:10:25.295Z,97882.19
2023-05-09T21:12:57.708Z,97898.09
2023-05-09T21:15:31.229Z,97890.22
2023-05-09T21:18:03.194Z,97899.50
2023-05-09T21:20:36.415Z,97900.84
2023-05-09T21:23:08.829Z,97892.91
2023-05-09T21:25:41.342Z,97902.25
2023-05-09T21:28:15.907Z,97903.63
2023-05-09T21:30:55.430Z,97901.63
2023-05-09T21:33:28.113Z,97897.66
2023-05-09T21:36:00.447Z,97895.69
2023-05-09T21:38:32.334Z,97902.84
2023-05-09T21:41:05.486Z,97897.66
2023-05-09T21:43:37.852Z,97896.97
2023-05-09T21:46:10.541Z,97900.94
2023-05-09T21:48:43.443Z,97900.81
2023-05-09T21:51:15.424Z,97906.13
2023-05-09T21:53:48.155Z,97902.25
2023-05-09T21:56:20.743Z,97903.53
2023-05-09T21:58:56.117Z,97913.44
2023-05-09T22:01:28.027Z,97918.78
2023-05-09T22:04:00.874Z,97930.03
2023-05-09T22:06:33.963Z,97932.03
2023-05-09T22:09:06.561Z,97946.59
2023-05-09T22:11:39.750Z,97953.22
2023-05-09T22:14:12.514Z,97952.00
2023-05-09T22:16:45.284Z,97934.28
2023-05-09T22:19:17.473Z,97943.66
2023-05-09T22:21:50.213Z,97956.94
2023-05-09T22:24:23.020Z,97961.03
2023-05-09T22:26:55.684Z,97959.63
2023-05-09T22:29:27.958Z,97954.34
2023-05-09T22:32:04.637Z,97958.34
2023-05-09T22:34:37.210Z,97953.69
2023-05-09T22:37:11.358Z,97961.66
2023-05-09T22:39:43.336Z,97963.00
2023-05-09T22:42:16.440Z,97961.72
2023-05-09T22:44:49.694Z,97970.34
2023-05-09T22:47:22.839Z,97963.09
2023-05-09T22:52:48.740Z,97970.91
2023-05-09T22:55:21.620Z,97971.56
2023-05-09T22:57:53.924Z,97979.53
2023-05-09T23:00:25.793Z,97976.88
2023-05-09T23:02:59.891Z,97980.25
2023-05-09T23:05:31.938Z,97979.66
2023-05-09T23:08:04.640Z,97979.00
2023-05-09T23:10:36.553Z,97979.06
2023-05-09T23:13:09.120Z,97978.28
2023-05-09T23:15:41.855Z,97982.25
2023-05-09T23:18:14.822Z,97977.75
2023-05-09T23:20:46.969Z,97988.97
2023-05-09T23:23:19.640Z,97981.09
2023-05-09T23:25:51.515Z,97977.06
2023-05-09T23:28:25.604Z,97983.00
2023-05-09T23:30:57.504Z,97976.34
2023-05-09T23:33:30.192Z,97983.69
2023-05-09T23:36:03.333Z,97991.56
2023-05-09T23:38:36.126Z,97975.69
2023-05-09T23:41:07.985Z,97982.38
2023-05-09T23:43:40.817Z,97973.09
2023-05-09T23:46:13.220Z,97984.97
2023-05-09T23:48:46.076Z,97969.94
2023-05-09T23:51:20.422Z,97973.16
2023-05-09T23:53:52.780Z,97978.47
2023-05-09T23:56:25.281Z,97987.06
2023-05-09T23:58:58.023Z,97969.91
